sensor_id;sensor_type;location;lat;lon;timestamp;temperature;humidity
40538;DHT22;27925;41.874;12.526;2022-11-13T00:00:28;12.80;84.60
40538;DHT22;27925;41.874;12.526;2022-11-13T00:02:54;12.70;84.70
40538;DHT22;27925;41.874;12.526;2022-11-13T00:05:20;12.70;84.90
40538;DHT22;27925;41.874;12.526;2022-11-13T00:07:46;12.70;84.80
40538;DHT22;27925;41.874;12.526;2022-11-13T00:10:11;12.70;84.60
40538;DHT22;27925;41.874;12.526;2022-11-13T00:12:37;12.80;85.10
40538;DHT22;27925;41.874;12.526;2022-11-13T00:15:04;12.80;84.80
40538;DHT22;27925;41.874;12.526;2022-11-13T00:17:29;12.80;84.80
40538;DHT22;27925;41.874;12.526;2022-11-13T00:19:55;12.80;84.60
40538;DHT22;27925;41.874;12.526;2022-11-13T00:22:21;12.90;84.50
40538;DHT22;27925;41.874;12.526;2022-11-13T00:24:46;12.90;84.40
40538;DHT22;27925;41.874;12.526;2022-11-13T00:27:13;12.90;84.30
40538;DHT22;27925;41.874;12.526;2022-11-13T00:29:39;12.80;84.10
40538;DHT22;27925;41.874;12.526;2022-11-13T00:32:05;12.80;84.30
40538;DHT22;27925;41.874;12.526;2022-11-13T00:34:30;12.80;84.50
40538;DHT22;27925;41.874;12.526;2022-11-13T00:36:56;12.80;84.40
40538;DHT22;27925;41.874;12.526;2022-11-13T00:39:22;12.70;84.40
40538;DHT22;27925;41.874;12.526;2022-11-13T00:41:48;12.70;84.70
40538;DHT22;27925;41.874;12.526;2022-11-13T00:44:13;12.60;84.80
40538;DHT22;27925;41.874;12.526;2022-11-13T00:46:39;12.70;85.20
40538;DHT22;27925;41.874;12.526;2022-11-13T00:49:05;12.70;85.10
40538;DHT22;27925;41.874;12.526;2022-11-13T00:51:31;12.70;84.90
40538;DHT22;27925;41.874;12.526;2022-11-13T00:53:57;12.70;85.00
40538;DHT22;27925;41.874;12.526;2022-11-13T00:56:23;12.70;85.10
40538;DHT22;27925;41.874;12.526;2022-11-13T00:58:49;12.60;85.00
40538;DHT22;27925;41.874;12.526;2022-11-13T01:01:18;12.60;85.20
40538;DHT22;27925;41.874;12.526;2022-11-13T01:03:44;12.70;85.40
40538;DHT22;27925;41.874;12.526;2022-11-13T01:06:11;12.60;85.40
40538;DHT22;27925;41.874;12.526;2022-11-13T01:08:37;12.60;85.20
40538;DHT22;27925;41.874;12.526;2022-11-13T01:11:09;12.60;85.30
40538;DHT22;27925;41.874;12.526;2022-11-13T01:13:35;12.60;85.40
40538;DHT22;27925;41.874;12.526;2022-11-13T01:16:04;12.70;85.40
40538;DHT22;27925;41.874;12.526;2022-11-13T01:18:31;12.70;85.20
40538;DHT22;27925;41.874;12.526;2022-11-13T01:21:23;12.70;85.10
40538;DHT22;27925;41.874;12.526;2022-11-13T01:23:49;12.70;84.70
40538;DHT22;27925;41.874;12.526;2022-11-13T01:26:21;12.80;85.00
40538;DHT22;27925;41.874;12.526;2022-11-13T01:28:47;12.80;84.90
40538;DHT22;27925;41.874;12.526;2022-11-13T01:31:19;12.80;84.80
40538;DHT22;27925;41.874;12.526;2022-11-13T01:33:46;12.80;84.50
40538;DHT22;27925;41.874;12.526;2022-11-13T01:36:17;12.80;84.40
40538;DHT22;27925;41.874;12.526;2022-11-13T01:38:44;12.80;83.90
40538;DHT22;27925;41.874;12.526;2022-11-13T01:41:24;12.80;84.30
40538;DHT22;27925;41.874;12.526;2022-11-13T01:43:52;12.80;83.90
40538;DHT22;27925;41.874;12.526;2022-11-13T01:51:27;12.90;83.90
40538;DHT22;27925;41.874;12.526;2022-11-13T01:53:54;12.90;83.60
40538;DHT22;27925;41.874;12.526;2022-11-13T01:56:21;13.00;83.60
40538;DHT22;27925;41.874;12.526;2022-11-13T01:59:03;12.90;83.30
40538;DHT22;27925;41.874;12.526;2022-11-13T02:01:29;12.90;83.20
40538;DHT22;27925;41.874;12.526;2022-11-13T02:03:55;13.00;83.30
40538;DHT22;27925;41.874;12.526;2022-11-13T02:06:21;13.00;83.10
40538;DHT22;27925;41.874;12.526;2022-11-13T02:08:48;13.00;82.90
40538;DHT22;27925;41.874;12.526;2022-11-13T02:11:15;13.00;82.50
40538;DHT22;27925;41.874;12.526;2022-11-13T02:13:42;13.00;82.10
40538;DHT22;27925;41.874;12.526;2022-11-13T02:16:09;13.00;82.10
40538;DHT22;27925;41.874;12.526;2022-11-13T02:18:36;12.90;81.10
40538;DHT22;27925;41.874;12.526;2022-11-13T02:26:46;12.80;80.50
40538;DHT22;27925;41.874;12.526;2022-11-13T02:29:14;12.80;79.40
40538;DHT22;27925;41.874;12.526;2022-11-13T02:31:39;12.90;79.70
40538;DHT22;27925;41.874;12.526;2022-11-13T02:34:05;12.90;79.20
40538;DHT22;27925;41.874;12.526;2022-11-13T02:36:31;12.80;78.70
40538;DHT22;27925;41.874;12.526;2022-11-13T02:39:03;12.80;78.60
40538;DHT22;27925;41.874;12.526;2022-11-13T02:41:31;12.80;78.40
40538;DHT22;27925;41.874;12.526;2022-11-13T02:43:57;12.80;78.10
40538;DHT22;27925;41.874;12.526;2022-11-13T02:46:22;12.80;78.10
40538;DHT22;27925;41.874;12.526;2022-11-13T02:48:48;12.80;78.10
40538;DHT22;27925;41.874;12.526;2022-11-13T02:51:14;12.90;78.30
40538;DHT22;27925;41.874;12.526;2022-11-13T02:53:39;12.90;78.30
40538;DHT22;27925;41.874;12.526;2022-11-13T02:56:06;12.90;78.00
40538;DHT22;27925;41.874;12.526;2022-11-13T02:58:31;12.90;77.80
40538;DHT22;27925;41.874;12.526;2022-11-13T03:01:00;12.90;77.90
40538;DHT22;27925;41.874;12.526;2022-11-13T03:03:26;13.00;77.50
40538;DHT22;27925;41.874;12.526;2022-11-13T03:05:52;13.00;77.80
40538;DHT22;27925;41.874;12.526;2022-11-13T03:08:18;13.00;77.30
40538;DHT22;27925;41.874;12.526;2022-11-13T03:10:45;12.90;77.30
40538;DHT22;27925;41.874;12.526;2022-11-13T03:13:11;13.00;77.30
40538;DHT22;27925;41.874;12.526;2022-11-13T03:15:36;12.90;77.10
40538;DHT22;27925;41.874;12.526;2022-11-13T03:18:06;12.90;77.30
40538;DHT22;27925;41.874;12.526;2022-11-13T03:20:35;12.90;77.20
40538;DHT22;27925;41.874;12.526;2022-11-13T03:23:02;12.90;77.40
40538;DHT22;27925;41.874;12.526;2022-11-13T03:25:28;12.90;77.30
40538;DHT22;27925;41.874;12.526;2022-11-13T03:27:53;12.90;77.50
40538;DHT22;27925;41.874;12.526;2022-11-13T03:30:19;12.90;77.10
40538;DHT22;27925;41.874;12.526;2022-11-13T03:32:45;13.00;77.30
40538;DHT22;27925;41.874;12.526;2022-11-13T03:35:11;13.00;77.20
40538;DHT22;27925;41.874;12.526;2022-11-13T03:37:36;12.90;76.80
40538;DHT22;27925;41.874;12.526;2022-11-13T03:40:02;13.00;77.00
40538;DHT22;27925;41.874;12.526;2022-11-13T03:42:28;13.00;76.80
40538;DHT22;27925;41.874;12.526;2022-11-13T03:44:54;13.00;76.90
40538;DHT22;27925;41.874;12.526;2022-11-13T03:47:19;13.00;76.40
40538;DHT22;27925;41.874;12.526;2022-11-13T03:49:45;13.00;76.60
40538;DHT22;27925;41.874;12.526;2022-11-13T03:52:11;13.00;76.70
40538;DHT22;27925;41.874;12.526;2022-11-13T03:54:37;13.00;77.30
40538;DHT22;27925;41.874;12.526;2022-11-13T03:57:02;13.00;76.60
40538;DHT22;27925;41.874;12.526;2022-11-13T03:59:30;13.00;76.80
40538;DHT22;27925;41.874;12.526;2022-11-13T04:01:55;13.00;76.40
40538;DHT22;27925;41.874;12.526;2022-11-13T04:04:21;13.00;76.60
40538;DHT22;27925;41.874;12.526;2022-11-13T04:06:47;13.00;76.80
40538;DHT22;27925;41.874;12.526;2022-11-13T04:09:13;13.00;76.50
40538;DHT22;27925;41.874;12.526;2022-11-13T04:11:38;13.00;76.50
40538;DHT22;27925;41.874;12.526;2022-11-13T04:14:04;13.00;76.30
40538;DHT22;27925;41.874;12.526;2022-11-13T04:16:30;13.00;76.60
40538;DHT22;27925;41.874;12.526;2022-11-13T04:18:56;12.90;76.40
40538;DHT22;27925;41.874;12.526;2022-11-13T04:21:21;13.00;76.80
40538;DHT22;27925;41.874;12.526;2022-11-13T04:23:47;13.00;76.60
40538;DHT22;27925;41.874;12.526;2022-11-13T04:26:13;13.00;76.50
40538;DHT22;27925;41.874;12.526;2022-11-13T04:28:39;12.90;76.70
40538;DHT22;27925;41.874;12.526;2022-11-13T04:31:04;12.90;76.60
40538;DHT22;27925;41.874;12.526;2022-11-13T04:33:30;12.80;76.50
40538;DHT22;27925;41.874;12.526;2022-11-13T04:35:56;12.80;76.50
40538;DHT22;27925;41.874;12.526;2022-11-13T04:38:21;12.80;76.60
40538;DHT22;27925;41.874;12.526;2022-11-13T04:40:50;12.80;76.70
40538;DHT22;27925;41.874;12.526;2022-11-13T04:43:36;12.70;76.50
40538;DHT22;27925;41.874;12.526;2022-11-13T04:46:02;12.70;76.80
40538;DHT22;27925;41.874;12.526;2022-11-13T04:48:27;12.70;76.90
40538;DHT22;27925;41.874;12.526;2022-11-13T04:50:53;12.70;77.10
40538;DHT22;27925;41.874;12.526;2022-11-13T04:53:18;12.60;77.00
40538;DHT22;27925;41.874;12.526;2022-11-13T04:55:44;12.60;77.10
40538;DHT22;27925;41.874;12.526;2022-11-13T04:58:10;12.60;77.20
40538;DHT22;27925;41.874;12.526;2022-11-13T05:00:36;12.60;77.20
40538;DHT22;27925;41.874;12.526;2022-11-13T05:03:01;12.50;77.20
40538;DHT22;27925;41.874;12.526;2022-11-13T05:05:27;12.40;77.20
40538;DHT22;27925;41.874;12.526;2022-11-13T05:07:54;12.40;77.40
40538;DHT22;27925;41.874;12.526;2022-11-13T05:10:20;12.40;77.40
40538;DHT22;27925;41.874;12.526;2022-11-13T05:12:45;12.40;77.50
40538;DHT22;27925;41.874;12.526;2022-11-13T05:15:11;12.40;77.80
40538;DHT22;27925;41.874;12.526;2022-11-13T05:17:37;12.40;77.70
40538;DHT22;27925;41.874;12.526;2022-11-13T05:20:03;12.50;78.00
40538;DHT22;27925;41.874;12.526;2022-11-13T05:22:29;12.50;77.80
40538;DHT22;27925;41.874;12.526;2022-11-13T05:24:55;12.50;77.90
40538;DHT22;27925;41.874;12.526;2022-11-13T05:27:20;12.50;77.90
40538;DHT22;27925;41.874;12.526;2022-11-13T05:29:46;12.50;77.90
40538;DHT22;27925;41.874;12.526;2022-11-13T05:32:12;12.50;77.80
40538;DHT22;27925;41.874;12.526;2022-11-13T05:34:38;12.50;77.60
40538;DHT22;27925;41.874;12.526;2022-11-13T05:37:03;12.50;77.80
40538;DHT22;27925;41.874;12.526;2022-11-13T05:39:29;12.50;78.00
40538;DHT22;27925;41.874;12.526;2022-11-13T05:41:55;12.50;77.90
40538;DHT22;27925;41.874;12.526;2022-11-13T05:44:20;12.50;78.00
40538;DHT22;27925;41.874;12.526;2022-11-13T05:46:46;12.50;77.90
40538;DHT22;27925;41.874;12.526;2022-11-13T05:49:12;12.50;78.00
40538;DHT22;27925;41.874;12.526;2022-11-13T05:51:38;12.50;77.90
40538;DHT22;27925;41.874;12.526;2022-11-13T05:54:03;12.50;77.80
40538;DHT22;27925;41.874;12.526;2022-11-13T05:56:33;12.50;77.80
40538;DHT22;27925;41.874;12.526;2022-11-13T05:59:00;12.50;77.70
40538;DHT22;27925;41.874;12.526;2022-11-13T06:03:53;12.40;77.90
40538;DHT22;27925;41.874;12.526;2022-11-13T06:06:20;12.40;77.80
40538;DHT22;27925;41.874;12.526;2022-11-13T06:08:47;12.40;77.70
40538;DHT22;27925;41.874;12.526;2022-11-13T06:11:22;12.50;77.90
40538;DHT22;27925;41.874;12.526;2022-11-13T06:13:49;12.50;78.50
40538;DHT22;27925;41.874;12.526;2022-11-13T06:16:18;12.50;78.10
40538;DHT22;27925;41.874;12.526;2022-11-13T06:18:45;12.50;78.00
40538;DHT22;27925;41.874;12.526;2022-11-13T06:21:18;12.50;78.00
40538;DHT22;27925;41.874;12.526;2022-11-13T06:23:44;12.50;78.00
40538;DHT22;27925;41.874;12.526;2022-11-13T06:26:23;12.50;78.50
40538;DHT22;27925;41.874;12.526;2022-11-13T06:28:49;12.50;78.40
40538;DHT22;27925;41.874;12.526;2022-11-13T06:31:23;12.50;78.10
40538;DHT22;27925;41.874;12.526;2022-11-13T06:33:49;12.50;78.20
40538;DHT22;27925;41.874;12.526;2022-11-13T06:36:27;12.50;77.90
40538;DHT22;27925;41.874;12.526;2022-11-13T06:38:53;12.60;77.80
40538;DHT22;27925;41.874;12.526;2022-11-13T06:41:21;12.60;77.90
40538;DHT22;27925;41.874;12.526;2022-11-13T06:43:48;12.60;77.80
40538;DHT22;27925;41.874;12.526;2022-11-13T06:46:16;12.70;77.90
40538;DHT22;27925;41.874;12.526;2022-11-13T06:48:43;12.70;77.70
40538;DHT22;27925;41.874;12.526;2022-11-13T06:51:13;12.80;77.90
40538;DHT22;27925;41.874;12.526;2022-11-13T06:53:40;12.80;77.70
40538;DHT22;27925;41.874;12.526;2022-11-13T06:56:06;12.90;77.70
40538;DHT22;27925;41.874;12.526;2022-11-13T06:58:32;13.00;77.80
40538;DHT22;27925;41.874;12.526;2022-11-13T07:01:04;13.10;77.70
40538;DHT22;27925;41.874;12.526;2022-11-13T07:03:30;13.20;77.50
40538;DHT22;27925;41.874;12.526;2022-11-13T07:05:56;13.30;77.20
40538;DHT22;27925;41.874;12.526;2022-11-13T07:08:21;13.40;77.10
40538;DHT22;27925;41.874;12.526;2022-11-13T07:10:55;13.50;76.80
40538;DHT22;27925;41.874;12.526;2022-11-13T07:13:22;13.60;76.90
40538;DHT22;27925;41.874;12.526;2022-11-13T07:15:47;13.70;76.80
40538;DHT22;27925;41.874;12.526;2022-11-13T07:18:13;13.80;76.70
40538;DHT22;27925;41.874;12.526;2022-11-13T07:20:39;13.90;76.40
40538;DHT22;27925;41.874;12.526;2022-11-13T07:23:05;14.00;76.20
40538;DHT22;27925;41.874;12.526;2022-11-13T07:25:31;14.00;75.80
40538;DHT22;27925;41.874;12.526;2022-11-13T07:27:57;14.00;75.70
40538;DHT22;27925;41.874;12.526;2022-11-13T07:30:22;14.00;75.20
40538;DHT22;27925;41.874;12.526;2022-11-13T07:32:48;14.10;75.20
40538;DHT22;27925;41.874;12.526;2022-11-13T07:35:14;14.10;75.00
40538;DHT22;27925;41.874;12.526;2022-11-13T07:37:41;14.10;74.80
40538;DHT22;27925;41.874;12.526;2022-11-13T07:40:08;14.10;74.70
40538;DHT22;27925;41.874;12.526;2022-11-13T07:42:34;14.00;74.50
40538;DHT22;27925;41.874;12.526;2022-11-13T07:45:00;14.00;74.50
40538;DHT22;27925;41.874;12.526;2022-11-13T07:47:26;14.10;75.00
40538;DHT22;27925;41.874;12.526;2022-11-13T07:49:51;14.10;74.80
40538;DHT22;27925;41.874;12.526;2022-11-13T07:52:17;14.10;74.90
40538;DHT22;27925;41.874;12.526;2022-11-13T07:54:44;14.10;74.90
40538;DHT22;27925;41.874;12.526;2022-11-13T07:57:09;14.10;74.90
40538;DHT22;27925;41.874;12.526;2022-11-13T07:59:35;14.00;74.80
40538;DHT22;27925;41.874;12.526;2022-11-13T08:02:01;14.10;74.60
40538;DHT22;27925;41.874;12.526;2022-11-13T08:04:29;14.10;74.70
40538;DHT22;27925;41.874;12.526;2022-11-13T08:06:55;14.10;74.40
40538;DHT22;27925;41.874;12.526;2022-11-13T08:09:20;14.10;74.30
40538;DHT22;27925;41.874;12.526;2022-11-13T08:11:46;14.00;74.00
40538;DHT22;27925;41.874;12.526;2022-11-13T08:14:12;14.10;74.30
40538;DHT22;27925;41.874;12.526;2022-11-13T08:16:38;14.10;74.20
40538;DHT22;27925;41.874;12.526;2022-11-13T08:19:03;14.10;74.00
40538;DHT22;27925;41.874;12.526;2022-11-13T08:21:29;14.20;74.00
40538;DHT22;27925;41.874;12.526;2022-11-13T08:23:55;14.30;73.60
40538;DHT22;27925;41.874;12.526;2022-11-13T08:26:21;14.30;73.60
40538;DHT22;27925;41.874;12.526;2022-11-13T08:28:47;14.30;73.50
40538;DHT22;27925;41.874;12.526;2022-11-13T08:31:14;14.40;73.40
40538;DHT22;27925;41.874;12.526;2022-11-13T08:33:41;14.40;73.50
40538;DHT22;27925;41.874;12.526;2022-11-13T08:36:08;14.50;73.30
40538;DHT22;27925;41.874;12.526;2022-11-13T08:38:34;14.50;73.30
40538;DHT22;27925;41.874;12.526;2022-11-13T08:41:03;14.60;73.00
40538;DHT22;27925;41.874;12.526;2022-11-13T08:43:29;14.60;72.90
40538;DHT22;27925;41.874;12.526;2022-11-13T08:45:55;14.70;72.70
40538;DHT22;27925;41.874;12.526;2022-11-13T08:48:22;14.70;72.20
40538;DHT22;27925;41.874;12.526;2022-11-13T08:50:52;14.80;72.00
40538;DHT22;27925;41.874;12.526;2022-11-13T08:53:19;14.90;71.80
40538;DHT22;27925;41.874;12.526;2022-11-13T08:55:45;14.90;71.30
40538;DHT22;27925;41.874;12.526;2022-11-13T08:58:10;15.00;71.60
40538;DHT22;27925;41.874;12.526;2022-11-13T09:00:36;15.00;71.30
40538;DHT22;27925;41.874;12.526;2022-11-13T09:03:02;15.10;71.50
40538;DHT22;27925;41.874;12.526;2022-11-13T09:05:28;15.20;70.70
40538;DHT22;27925;41.874;12.526;2022-11-13T09:07:58;15.30;70.50
40538;DHT22;27925;41.874;12.526;2022-11-13T09:10:25;15.40;70.30
40538;DHT22;27925;41.874;12.526;2022-11-13T09:12:59;15.50;70.20
40538;DHT22;27925;41.874;12.526;2022-11-13T09:15:27;15.50;70.10
40538;DHT22;27925;41.874;12.526;2022-11-13T09:18:00;15.60;69.90
40538;DHT22;27925;41.874;12.526;2022-11-13T09:20:28;15.70;70.00
40538;DHT22;27925;41.874;12.526;2022-11-13T09:23:02;15.80;69.70
40538;DHT22;27925;41.874;12.526;2022-11-13T09:25:29;15.90;69.80
40538;DHT22;27925;41.874;12.526;2022-11-13T09:27:58;16.00;69.60
40538;DHT22;27925;41.874;12.526;2022-11-13T09:30:24;16.10;69.30
40538;DHT22;27925;41.874;12.526;2022-11-13T09:32:55;16.20;68.80
40538;DHT22;27925;41.874;12.526;2022-11-13T09:35:25;16.30;68.00
40538;DHT22;27925;41.874;12.526;2022-11-13T09:38:08;16.40;67.90
40538;DHT22;27925;41.874;12.526;2022-11-13T09:40:44;16.50;68.40
40538;DHT22;27925;41.874;12.526;2022-11-13T09:46:05;16.70;67.60
40538;DHT22;27925;41.874;12.526;2022-11-13T09:48:40;16.80;67.00
40538;DHT22;27925;41.874;12.526;2022-11-13T09:51:20;16.80;66.00
40538;DHT22;27925;41.874;12.526;2022-11-13T09:53:47;16.90;66.40
40538;DHT22;27925;41.874;12.526;2022-11-13T09:56:32;17.00;65.60
40538;DHT22;27925;41.874;12.526;2022-11-13T09:59:37;17.20;64.90
40538;DHT22;27925;41.874;12.526;2022-11-13T10:04:49;17.30;64.40
40538;DHT22;27925;41.874;12.526;2022-11-13T10:13:03;17.60;62.70
40538;DHT22;27925;41.874;12.526;2022-11-13T10:15:30;17.80;62.90
40538;DHT22;27925;41.874;12.526;2022-11-13T10:18:05;17.80;62.10
40538;DHT22;27925;41.874;12.526;2022-11-13T10:20:39;17.90;61.60
40538;DHT22;27925;41.874;12.526;2022-11-13T10:23:18;18.00;61.40
40538;DHT22;27925;41.874;12.526;2022-11-13T10:25:44;18.10;61.10
40538;DHT22;27925;41.874;12.526;2022-11-13T10:28:15;18.20;60.70
40538;DHT22;27925;41.874;12.526;2022-11-13T10:30:41;18.30;60.00
40538;DHT22;27925;41.874;12.526;2022-11-13T10:33:08;18.30;59.90
40538;DHT22;27925;41.874;12.526;2022-11-13T10:39:02;18.40;59.50
40538;DHT22;27925;41.874;12.526;2022-11-13T10:41:13;18.50;58.60
40538;DHT22;27925;41.874;12.526;2022-11-13T10:44:02;18.60;58.20
40538;DHT22;27925;41.874;12.526;2022-11-13T10:46:30;18.70;58.80
40538;DHT22;27925;41.874;12.526;2022-11-13T10:48:57;18.80;57.70
40538;DHT22;27925;41.874;12.526;2022-11-13T10:51:31;18.90;57.00
40538;DHT22;27925;41.874;12.526;2022-11-13T10:53:59;18.90;57.10
40538;DHT22;27925;41.874;12.526;2022-11-13T10:56:30;19.00;57.30
40538;DHT22;27925;41.874;12.526;2022-11-13T11:01:24;19.20;57.00
40538;DHT22;27925;41.874;12.526;2022-11-13T11:03:50;19.30;57.00
40538;DHT22;27925;41.874;12.526;2022-11-13T11:06:16;19.30;56.60
40538;DHT22;27925;41.874;12.526;2022-11-13T11:08:42;19.40;56.50
40538;DHT22;27925;41.874;12.526;2022-11-13T11:11:16;19.50;56.60
40538;DHT22;27925;41.874;12.526;2022-11-13T11:14:27;19.60;56.60
40538;DHT22;27925;41.874;12.526;2022-11-13T11:16:53;19.60;57.20
40538;DHT22;27925;41.874;12.526;2022-11-13T11:19:24;19.70;56.20
40538;DHT22;27925;41.874;12.526;2022-11-13T11:21:54;19.70;56.40
40538;DHT22;27925;41.874;12.526;2022-11-13T11:24:29;19.80;56.40
40538;DHT22;27925;41.874;12.526;2022-11-13T11:27:14;19.80;55.80
40538;DHT22;27925;41.874;12.526;2022-11-13T11:30:02;19.80;55.40
40538;DHT22;27925;41.874;12.526;2022-11-13T11:35:39;19.90;55.30
40538;DHT22;27925;41.874;12.526;2022-11-13T11:40:42;19.70;55.40
40538;DHT22;27925;41.874;12.526;2022-11-13T11:45:59;19.30;55.70
40538;DHT22;27925;41.874;12.526;2022-11-13T11:48:30;19.20;56.20
40538;DHT22;27925;41.874;12.526;2022-11-13T11:50:59;19.20;56.00
40538;DHT22;27925;41.874;12.526;2022-11-13T11:56:11;19.40;55.70
40538;DHT22;27925;41.874;12.526;2022-11-13T12:09:24;19.40;55.80
40538;DHT22;27925;41.874;12.526;2022-11-13T12:15:06;19.30;55.50
40538;DHT22;27925;41.874;12.526;2022-11-13T12:17:58;19.30;55.30
40538;DHT22;27925;41.874;12.526;2022-11-13T12:25:51;19.20;55.90
40538;DHT22;27925;41.874;12.526;2022-11-13T12:36:12;19.00;56.10
40538;DHT22;27925;41.874;12.526;2022-11-13T12:38:50;19.10;55.50
40538;DHT22;27925;41.874;12.526;2022-11-13T12:41:42;19.20;55.50
40538;DHT22;27925;41.874;12.526;2022-11-13T12:44:25;19.20;55.10
40538;DHT22;27925;41.874;12.526;2022-11-13T12:46:52;19.10;55.50
40538;DHT22;27925;41.874;12.526;2022-11-13T12:54:31;18.90;56.10
40538;DHT22;27925;41.874;12.526;2022-11-13T12:57:16;18.90;56.50
40538;DHT22;27925;41.874;12.526;2022-11-13T12:59:54;19.00;56.40
40538;DHT22;27925;41.874;12.526;2022-11-13T13:02:31;19.10;57.10
40538;DHT22;27925;41.874;12.526;2022-11-13T13:10:39;19.20;56.70
40538;DHT22;27925;41.874;12.526;2022-11-13T13:16:03;19.20;57.90
40538;DHT22;27925;41.874;12.526;2022-11-13T13:18:34;19.20;58.50
40538;DHT22;27925;41.874;12.526;2022-11-13T13:21:10;19.20;58.80
40538;DHT22;27925;41.874;12.526;2022-11-13T13:23:50;19.20;58.80
40538;DHT22;27925;41.874;12.526;2022-11-13T13:26:21;19.20;59.90
40538;DHT22;27925;41.874;12.526;2022-11-13T13:28:51;19.20;59.30
40538;DHT22;27925;41.874;12.526;2022-11-13T13:34:19;19.10;60.00
40538;DHT22;27925;41.874;12.526;2022-11-13T13:36:51;19.10;60.50
40538;DHT22;27925;41.874;12.526;2022-11-13T13:45:20;19.00;60.50
40538;DHT22;27925;41.874;12.526;2022-11-13T13:47:49;19.00;60.60
40538;DHT22;27925;41.874;12.526;2022-11-13T13:50:22;18.90;60.50
40538;DHT22;27925;41.874;12.526;2022-11-13T13:52:48;18.90;60.90
40538;DHT22;27925;41.874;12.526;2022-11-13T13:55:34;18.90;61.80
40538;DHT22;27925;41.874;12.526;2022-11-13T13:58:05;19.00;62.10
40538;DHT22;27925;41.874;12.526;2022-11-13T14:00:32;19.00;61.60
40538;DHT22;27925;41.874;12.526;2022-11-13T14:03:00;19.00;61.60
40538;DHT22;27925;41.874;12.526;2022-11-13T14:05:31;19.00;61.70
40538;DHT22;27925;41.874;12.526;2022-11-13T14:07:58;19.00;62.70
40538;DHT22;27925;41.874;12.526;2022-11-13T14:10:27;19.00;62.40
40538;DHT22;27925;41.874;12.526;2022-11-13T14:12:54;19.00;64.10
40538;DHT22;27925;41.874;12.526;2022-11-13T14:15:27;18.90;65.80
40538;DHT22;27925;41.874;12.526;2022-11-13T14:18:08;18.90;62.50
40538;DHT22;27925;41.874;12.526;2022-11-13T14:20:47;18.90;62.60
40538;DHT22;27925;41.874;12.526;2022-11-13T14:23:31;18.90;62.80
40538;DHT22;27925;41.874;12.526;2022-11-13T14:25:59;18.90;62.90
40538;DHT22;27925;41.874;12.526;2022-11-13T14:28:43;18.90;64.30
40538;DHT22;27925;41.874;12.526;2022-11-13T14:31:11;18.80;62.90
40538;DHT22;27925;41.874;12.526;2022-11-13T14:33:42;18.70;64.40
40538;DHT22;27925;41.874;12.526;2022-11-13T14:36:09;18.60;63.80
40538;DHT22;27925;41.874;12.526;2022-11-13T14:38:39;18.60;64.10
40538;DHT22;27925;41.874;12.526;2022-11-13T14:41:05;18.50;65.00
40538;DHT22;27925;41.874;12.526;2022-11-13T14:43:32;18.40;64.60
40538;DHT22;27925;41.874;12.526;2022-11-13T14:46:02;18.30;65.20
40538;DHT22;27925;41.874;12.526;2022-11-13T14:48:32;18.20;65.40
40538;DHT22;27925;41.874;12.526;2022-11-13T14:51:04;18.20;65.70
40538;DHT22;27925;41.874;12.526;2022-11-13T14:53:41;18.10;65.40
40538;DHT22;27925;41.874;12.526;2022-11-13T14:56:08;18.00;65.40
40538;DHT22;27925;41.874;12.526;2022-11-13T14:58:40;18.00;65.40
40538;DHT22;27925;41.874;12.526;2022-11-13T15:01:17;18.00;65.20
40538;DHT22;27925;41.874;12.526;2022-11-13T15:03:44;17.90;64.70
40538;DHT22;27925;41.874;12.526;2022-11-13T15:06:16;17.90;64.60
40538;DHT22;27925;41.874;12.526;2022-11-13T15:08:44;17.90;64.80
40538;DHT22;27925;41.874;12.526;2022-11-13T15:11:28;17.90;65.00
40538;DHT22;27925;41.874;12.526;2022-11-13T15:13:54;17.80;65.40
40538;DHT22;27925;41.874;12.526;2022-11-13T15:16:27;17.70;65.40
40538;DHT22;27925;41.874;12.526;2022-11-13T15:19:02;17.70;66.10
40538;DHT22;27925;41.874;12.526;2022-11-13T15:21:29;17.60;66.50
40538;DHT22;27925;41.874;12.526;2022-11-13T15:23:55;17.50;66.90
40538;DHT22;27925;41.874;12.526;2022-11-13T15:26:21;17.40;67.90
40538;DHT22;27925;41.874;12.526;2022-11-13T15:28:48;17.30;68.20
40538;DHT22;27925;41.874;12.526;2022-11-13T15:33:42;17.20;69.40
40538;DHT22;27925;41.874;12.526;2022-11-13T15:36:08;17.10;69.00
40538;DHT22;27925;41.874;12.526;2022-11-13T15:38:34;17.10;69.40
40538;DHT22;27925;41.874;12.526;2022-11-13T15:41:00;17.00;69.50
40538;DHT22;27925;41.874;12.526;2022-11-13T15:43:25;17.00;70.10
40538;DHT22;27925;41.874;12.526;2022-11-13T15:45:51;17.00;70.40
40538;DHT22;27925;41.874;12.526;2022-11-13T15:48:17;16.90;70.70
40538;DHT22;27925;41.874;12.526;2022-11-13T15:50:42;16.90;71.00
40538;DHT22;27925;41.874;12.526;2022-11-13T15:53:09;16.90;71.30
40538;DHT22;27925;41.874;12.526;2022-11-13T15:55:38;16.90;71.40
40538;DHT22;27925;41.874;12.526;2022-11-13T15:58:05;16.90;71.60
40538;DHT22;27925;41.874;12.526;2022-11-13T16:00:30;16.90;71.80
40538;DHT22;27925;41.874;12.526;2022-11-13T16:02:57;16.90;71.60
40538;DHT22;27925;41.874;12.526;2022-11-13T16:05:24;16.90;72.30
40538;DHT22;27925;41.874;12.526;2022-11-13T16:07:53;16.90;72.00
40538;DHT22;27925;41.874;12.526;2022-11-13T16:10:34;16.90;72.70
40538;DHT22;27925;41.874;12.526;2022-11-13T16:13:00;16.90;72.30
40538;DHT22;27925;41.874;12.526;2022-11-13T16:15:25;16.80;72.10
40538;DHT22;27925;41.874;12.526;2022-11-13T16:17:54;16.80;72.20
40538;DHT22;27925;41.874;12.526;2022-11-13T16:20:20;16.80;74.20
40538;DHT22;27925;41.874;12.526;2022-11-13T16:22:46;16.80;72.80
40538;DHT22;27925;41.874;12.526;2022-11-13T16:25:20;16.80;72.10
40538;DHT22;27925;41.874;12.526;2022-11-13T16:27:46;16.80;72.60
40538;DHT22;27925;41.874;12.526;2022-11-13T16:30:21;16.70;75.60
40538;DHT22;27925;41.874;12.526;2022-11-13T16:32:53;16.70;72.60
40538;DHT22;27925;41.874;12.526;2022-11-13T16:35:19;16.70;75.50
40538;DHT22;27925;41.874;12.526;2022-11-13T16:37:45;16.60;72.10
40538;DHT22;27925;41.874;12.526;2022-11-13T16:40:22;16.60;72.40
40538;DHT22;27925;41.874;12.526;2022-11-13T16:42:52;16.60;72.30
40538;DHT22;27925;41.874;12.526;2022-11-13T16:45:20;16.60;72.30
40538;DHT22;27925;41.874;12.526;2022-11-13T16:47:46;16.60;72.20
40538;DHT22;27925;41.874;12.526;2022-11-13T16:50:23;16.60;72.00
40538;DHT22;27925;41.874;12.526;2022-11-13T16:52:49;16.60;73.20
40538;DHT22;27925;41.874;12.526;2022-11-13T16:55:15;16.60;72.30
40538;DHT22;27925;41.874;12.526;2022-11-13T16:57:41;16.50;72.90